Terminal Aerodrome Forecast
Issued by NWS Atlanta, GA

Home | Current Version | Previous Version | Text Only | Print | Product List | Glossary On
Versions: 1 2 3 4 5 6 7 8 9 10 11 12 13 14 15 16 17 18
000
FTUS42 KFFC 271738
TAFCSG
TAF
KCSG 271738Z 2718/2818 27010KT P6SM BKN020 BKN025
      TEMPO 2718/2719 VRB15G30KT 1SM +TSRA BR BKN010CB
     FM272000 24012KT P6SM VCSH BKN025
     FM272200 25010KT P6SM SCT030
     FM280000 26005KT P6SM SCT250
     FM281000 19003KT 6SM BR BKN009
     FM281500 17008KT P6SM BKN010=

USA.gov is the U.S. government's official web portal to all federal, state and local government web resources and services.